sensor_id;sensor_type;location;lat;lon;timestamp;P1;durP1;ratioP1;P2;durP2;ratioP2
58240;SDS011;45058;55.772;38.224;2023-02-28T00:00:34;20.47;;;10.30;;
58240;SDS011;45058;55.772;38.224;2023-02-28T00:03:01;23.27;;;10.23;;
58240;SDS011;45058;55.772;38.224;2023-02-28T00:05:27;22.47;;;9.93;;
58240;SDS011;45058;55.772;38.224;2023-02-28T00:07:55;19.10;;;9.90;;
58240;SDS011;45058;55.772;38.224;2023-02-28T00:10:22;20.23;;;9.83;;
58240;SDS011;45058;55.772;38.224;2023-02-28T00:12:50;21.80;;;9.60;;
58240;SDS011;45058;55.772;38.224;2023-02-28T00:15:17;22.37;;;10.20;;
58240;SDS011;45058;55.772;38.224;2023-02-28T00:17:43;22.40;;;10.13;;
58240;SDS011;45058;55.772;38.224;2023-02-28T00:20:10;23.63;;;10.10;;
58240;SDS011;45058;55.772;38.224;2023-02-28T00:22:38;16.70;;;9.03;;
58240;SDS011;45058;55.772;38.224;2023-02-28T00:25:05;21.43;;;10.43;;
58240;SDS011;45058;55.772;38.224;2023-02-28T00:27:33;17.67;;;9.33;;
58240;SDS011;45058;55.772;38.224;2023-02-28T00:29:59;24.17;;;11.63;;
58240;SDS011;45058;55.772;38.224;2023-02-28T00:32:27;26.53;;;13.07;;
58240;SDS011;45058;55.772;38.224;2023-02-28T00:34:53;24.17;;;13.43;;
58240;SDS011;45058;55.772;38.224;2023-02-28T00:37:19;21.20;;;11.27;;
58240;SDS011;45058;55.772;38.224;2023-02-28T00:39:45;27.17;;;13.03;;
58240;SDS011;45058;55.772;38.224;2023-02-28T00:42:11;25.83;;;12.93;;
58240;SDS011;45058;55.772;38.224;2023-02-28T00:44:37;33.77;;;16.27;;
58240;SDS011;45058;55.772;38.224;2023-02-28T00:47:04;25.33;;;12.00;;
58240;SDS011;45058;55.772;38.224;2023-02-28T00:49:30;28.67;;;14.10;;
58240;SDS011;45058;55.772;38.224;2023-02-28T00:51:56;22.70;;;11.63;;
58240;SDS011;45058;55.772;38.224;2023-02-28T00:54:22;24.00;;;12.10;;
58240;SDS011;45058;55.772;38.224;2023-02-28T00:56:49;21.67;;;10.50;;
58240;SDS011;45058;55.772;38.224;2023-02-28T00:59:16;22.00;;;11.30;;
58240;SDS011;45058;55.772;38.224;2023-02-28T01:01:44;21.63;;;10.50;;
58240;SDS011;45058;55.772;38.224;2023-02-28T01:04:11;20.33;;;10.73;;
58240;SDS011;45058;55.772;38.224;2023-02-28T01:06:38;23.00;;;12.43;;
58240;SDS011;45058;55.772;38.224;2023-02-28T01:09:05;24.33;;;11.47;;
58240;SDS011;45058;55.772;38.224;2023-02-28T01:11:32;25.13;;;10.93;;
58240;SDS011;45058;55.772;38.224;2023-02-28T01:13:58;19.77;;;10.60;;
58240;SDS011;45058;55.772;38.224;2023-02-28T01:16:24;27.73;;;13.43;;
58240;SDS011;45058;55.772;38.224;2023-02-28T01:18:50;26.17;;;12.50;;
58240;SDS011;45058;55.772;38.224;2023-02-28T01:21:17;21.93;;;12.93;;
58240;SDS011;45058;55.772;38.224;2023-02-28T01:23:45;23.07;;;12.73;;
58240;SDS011;45058;55.772;38.224;2023-02-28T01:26:13;26.27;;;13.67;;
58240;SDS011;45058;55.772;38.224;2023-02-28T01:28:41;24.00;;;12.20;;
58240;SDS011;45058;55.772;38.224;2023-02-28T01:31:08;20.00;;;11.13;;
58240;SDS011;45058;55.772;38.224;2023-02-28T01:33:36;22.50;;;11.93;;
58240;SDS011;45058;55.772;38.224;2023-02-28T01:36:04;17.90;;;10.37;;
58240;SDS011;45058;55.772;38.224;2023-02-28T01:38:30;21.20;;;10.73;;
58240;SDS011;45058;55.772;38.224;2023-02-28T01:40:57;24.23;;;11.97;;
58240;SDS011;45058;55.772;38.224;2023-02-28T01:43:24;24.53;;;12.97;;
58240;SDS011;45058;55.772;38.224;2023-02-28T01:45:54;118.80;;;18.97;;
58240;SDS011;45058;55.772;38.224;2023-02-28T01:48:26;21.80;;;11.67;;
58240;SDS011;45058;55.772;38.224;2023-02-28T01:50:54;23.20;;;12.60;;
58240;SDS011;45058;55.772;38.224;2023-02-28T01:53:29;23.37;;;12.53;;
58240;SDS011;45058;55.772;38.224;2023-02-28T01:56:03;23.93;;;13.03;;
58240;SDS011;45058;55.772;38.224;2023-02-28T01:58:31;23.40;;;13.47;;
58240;SDS011;45058;55.772;38.224;2023-02-28T02:00:57;25.27;;;13.73;;
58240;SDS011;45058;55.772;38.224;2023-02-28T02:03:25;25.77;;;13.63;;
58240;SDS011;45058;55.772;38.224;2023-02-28T02:05:57;23.43;;;12.60;;
58240;SDS011;45058;55.772;38.224;2023-02-28T02:08:23;24.17;;;12.70;;
58240;SDS011;45058;55.772;38.224;2023-02-28T02:10:55;25.37;;;12.77;;
58240;SDS011;45058;55.772;38.224;2023-02-28T02:18:54;27.87;;;13.57;;
58240;SDS011;45058;55.772;38.224;2023-02-28T02:41:08;21.80;;;10.97;;
58240;SDS011;45058;55.772;38.224;2023-02-28T02:46:33;54.53;;;13.13;;
58240;SDS011;45058;55.772;38.224;2023-02-28T02:49:05;21.10;;;11.68;;
58240;SDS011;45058;55.772;38.224;2023-02-28T02:51:34;29.00;;;12.90;;
58240;SDS011;45058;55.772;38.224;2023-02-28T02:54:05;25.33;;;12.93;;
58240;SDS011;45058;55.772;38.224;2023-02-28T02:56:55;31.10;;;13.60;;
58240;SDS011;45058;55.772;38.224;2023-02-28T02:59:23;27.53;;;14.63;;
58240;SDS011;45058;55.772;38.224;2023-02-28T03:01:52;24.63;;;13.13;;
58240;SDS011;45058;55.772;38.224;2023-02-28T03:04:21;24.97;;;13.57;;
58240;SDS011;45058;55.772;38.224;2023-02-28T03:06:50;29.63;;;13.20;;
58240;SDS011;45058;55.772;38.224;2023-02-28T03:09:21;30.27;;;13.17;;
58240;SDS011;45058;55.772;38.224;2023-02-28T03:11:48;23.57;;;11.57;;
58240;SDS011;45058;55.772;38.224;2023-02-28T03:17:20;26.20;;;12.13;;
58240;SDS011;45058;55.772;38.224;2023-02-28T03:25:17;25.10;;;11.97;;
58240;SDS011;45058;55.772;38.224;2023-02-28T03:30:51;22.33;;;12.27;;
58240;SDS011;45058;55.772;38.224;2023-02-28T03:36:02;19.97;;;9.80;;
58240;SDS011;45058;55.772;38.224;2023-02-28T03:38:33;20.57;;;10.27;;
58240;SDS011;45058;55.772;38.224;2023-02-28T03:43:53;21.20;;;10.63;;
58240;SDS011;45058;55.772;38.224;2023-02-28T03:46:23;24.83;;;10.30;;
58240;SDS011;45058;55.772;38.224;2023-02-28T03:48:53;20.03;;;10.10;;
58240;SDS011;45058;55.772;38.224;2023-02-28T03:51:22;21.43;;;10.27;;
58240;SDS011;45058;55.772;38.224;2023-02-28T03:53:57;19.97;;;9.87;;
58240;SDS011;45058;55.772;38.224;2023-02-28T03:56:37;21.93;;;11.83;;
58240;SDS011;45058;55.772;38.224;2023-02-28T03:59:20;20.43;;;10.20;;
58240;SDS011;45058;55.772;38.224;2023-02-28T04:01:50;25.20;;;11.37;;
58240;SDS011;45058;55.772;38.224;2023-02-28T04:04:17;22.13;;;11.40;;
58240;SDS011;45058;55.772;38.224;2023-02-28T04:06:44;20.97;;;10.90;;
58240;SDS011;45058;55.772;38.224;2023-02-28T04:09:11;18.40;;;10.00;;
58240;SDS011;45058;55.772;38.224;2023-02-28T04:11:51;19.37;;;9.97;;
58240;SDS011;45058;55.772;38.224;2023-02-28T04:14:18;19.03;;;10.53;;
58240;SDS011;45058;55.772;38.224;2023-02-28T04:16:44;19.73;;;9.37;;
58240;SDS011;45058;55.772;38.224;2023-02-28T04:19:11;17.67;;;9.43;;
58240;SDS011;45058;55.772;38.224;2023-02-28T04:21:38;17.87;;;8.77;;
58240;SDS011;45058;55.772;38.224;2023-02-28T04:24:12;19.17;;;9.97;;
58240;SDS011;45058;55.772;38.224;2023-02-28T04:26:44;21.10;;;9.57;;
58240;SDS011;45058;55.772;38.224;2023-02-28T04:29:12;19.57;;;8.80;;
58240;SDS011;45058;55.772;38.224;2023-02-28T04:31:40;16.00;;;8.60;;
58240;SDS011;45058;55.772;38.224;2023-02-28T04:34:06;17.60;;;7.70;;
58240;SDS011;45058;55.772;38.224;2023-02-28T04:36:32;14.17;;;8.17;;
58240;SDS011;45058;55.772;38.224;2023-02-28T04:38:58;12.67;;;7.07;;
58240;SDS011;45058;55.772;38.224;2023-02-28T04:41:24;14.03;;;7.50;;
58240;SDS011;45058;55.772;38.224;2023-02-28T04:43:51;13.70;;;6.80;;
58240;SDS011;45058;55.772;38.224;2023-02-28T04:46:18;16.10;;;7.90;;
58240;SDS011;45058;55.772;38.224;2023-02-28T04:48:45;15.23;;;7.60;;
58240;SDS011;45058;55.772;38.224;2023-02-28T04:51:12;14.13;;;6.83;;
58240;SDS011;45058;55.772;38.224;2023-02-28T04:53:39;14.17;;;6.63;;
58240;SDS011;45058;55.772;38.224;2023-02-28T04:56:07;12.90;;;5.90;;
58240;SDS011;45058;55.772;38.224;2023-02-28T04:58:33;12.80;;;6.80;;
58240;SDS011;45058;55.772;38.224;2023-02-28T05:01:04;9.33;;;5.20;;
58240;SDS011;45058;55.772;38.224;2023-02-28T05:03:55;13.63;;;6.33;;
58240;SDS011;45058;55.772;38.224;2023-02-28T05:06:23;12.13;;;6.60;;
58240;SDS011;45058;55.772;38.224;2023-02-28T05:08:51;12.67;;;6.07;;
58240;SDS011;45058;55.772;38.224;2023-02-28T05:11:25;12.50;;;6.93;;
58240;SDS011;45058;55.772;38.224;2023-02-28T05:13:54;10.80;;;5.87;;
58240;SDS011;45058;55.772;38.224;2023-02-28T05:16:20;12.07;;;6.80;;
58240;SDS011;45058;55.772;38.224;2023-02-28T05:18:47;17.57;;;7.47;;
58240;SDS011;45058;55.772;38.224;2023-02-28T05:21:23;12.60;;;7.00;;
58240;SDS011;45058;55.772;38.224;2023-02-28T05:23:52;16.37;;;7.20;;
58240;SDS011;45058;55.772;38.224;2023-02-28T05:26:18;16.30;;;8.00;;
58240;SDS011;45058;55.772;38.224;2023-02-28T05:28:45;13.67;;;7.50;;
58240;SDS011;45058;55.772;38.224;2023-02-28T05:31:11;13.03;;;6.87;;
58240;SDS011;45058;55.772;38.224;2023-02-28T05:33:38;11.03;;;6.87;;
58240;SDS011;45058;55.772;38.224;2023-02-28T05:36:05;12.87;;;6.27;;
58240;SDS011;45058;55.772;38.224;2023-02-28T05:38:31;9.77;;;4.93;;
58240;SDS011;45058;55.772;38.224;2023-02-28T05:40:58;10.47;;;6.17;;
58240;SDS011;45058;55.772;38.224;2023-02-28T05:43:23;8.13;;;4.87;;
58240;SDS011;45058;55.772;38.224;2023-02-28T05:45:50;9.20;;;5.03;;
58240;SDS011;45058;55.772;38.224;2023-02-28T05:48:16;8.70;;;4.60;;
58240;SDS011;45058;55.772;38.224;2023-02-28T05:50:43;6.73;;;4.17;;
58240;SDS011;45058;55.772;38.224;2023-02-28T05:53:11;9.37;;;4.07;;
58240;SDS011;45058;55.772;38.224;2023-02-28T05:55:37;9.80;;;5.17;;
58240;SDS011;45058;55.772;38.224;2023-02-28T05:58:03;8.03;;;4.13;;
58240;SDS011;45058;55.772;38.224;2023-02-28T06:00:29;8.23;;;4.60;;
58240;SDS011;45058;55.772;38.224;2023-02-28T06:02:55;8.73;;;4.70;;
58240;SDS011;45058;55.772;38.224;2023-02-28T06:05:23;7.17;;;4.00;;
58240;SDS011;45058;55.772;38.224;2023-02-28T06:07:49;6.90;;;4.23;;
58240;SDS011;45058;55.772;38.224;2023-02-28T06:10:16;7.57;;;4.40;;
58240;SDS011;45058;55.772;38.224;2023-02-28T06:12:44;7.60;;;4.03;;
58240;SDS011;45058;55.772;38.224;2023-02-28T06:15:13;8.97;;;4.97;;
58240;SDS011;45058;55.772;38.224;2023-02-28T06:17:43;12.20;;;4.73;;
58240;SDS011;45058;55.772;38.224;2023-02-28T06:20:10;16.50;;;6.67;;
58240;SDS011;45058;55.772;38.224;2023-02-28T06:22:38;9.70;;;5.23;;
58240;SDS011;45058;55.772;38.224;2023-02-28T06:25:05;10.13;;;5.00;;
58240;SDS011;45058;55.772;38.224;2023-02-28T06:27:32;7.07;;;4.20;;
58240;SDS011;45058;55.772;38.224;2023-02-28T06:29:59;7.83;;;4.40;;
58240;SDS011;45058;55.772;38.224;2023-02-28T06:32:25;9.93;;;4.53;;
58240;SDS011;45058;55.772;38.224;2023-02-28T06:34:51;8.63;;;4.37;;
58240;SDS011;45058;55.772;38.224;2023-02-28T06:37:18;11.10;;;4.30;;
58240;SDS011;45058;55.772;38.224;2023-02-28T06:39:44;7.00;;;4.03;;
58240;SDS011;45058;55.772;38.224;2023-02-28T06:42:10;10.43;;;4.40;;
58240;SDS011;45058;55.772;38.224;2023-02-28T06:44:36;7.60;;;4.67;;
58240;SDS011;45058;55.772;38.224;2023-02-28T06:47:04;10.07;;;5.13;;
58240;SDS011;45058;55.772;38.224;2023-02-28T06:49:31;6.27;;;3.83;;
58240;SDS011;45058;55.772;38.224;2023-02-28T06:51:59;8.50;;;4.30;;
58240;SDS011;45058;55.772;38.224;2023-02-28T06:54:25;5.40;;;3.70;;
58240;SDS011;45058;55.772;38.224;2023-02-28T06:56:51;6.10;;;3.53;;
58240;SDS011;45058;55.772;38.224;2023-02-28T06:59:18;6.83;;;3.57;;
58240;SDS011;45058;55.772;38.224;2023-02-28T07:01:45;7.67;;;4.10;;
58240;SDS011;45058;55.772;38.224;2023-02-28T07:04:11;9.50;;;4.43;;
58240;SDS011;45058;55.772;38.224;2023-02-28T07:06:38;6.87;;;3.97;;
58240;SDS011;45058;55.772;38.224;2023-02-28T07:09:04;8.77;;;3.90;;
58240;SDS011;45058;55.772;38.224;2023-02-28T07:11:30;7.13;;;4.00;;
58240;SDS011;45058;55.772;38.224;2023-02-28T07:13:57;7.30;;;4.30;;
58240;SDS011;45058;55.772;38.224;2023-02-28T07:16:23;9.00;;;4.67;;
58240;SDS011;45058;55.772;38.224;2023-02-28T07:18:53;5.23;;;3.33;;
58240;SDS011;45058;55.772;38.224;2023-02-28T07:21:20;7.37;;;4.30;;
58240;SDS011;45058;55.772;38.224;2023-02-28T07:23:46;8.30;;;4.27;;
58240;SDS011;45058;55.772;38.224;2023-02-28T07:26:14;6.90;;;3.90;;
58240;SDS011;45058;55.772;38.224;2023-02-28T07:28:42;6.97;;;3.70;;
58240;SDS011;45058;55.772;38.224;2023-02-28T07:31:10;9.20;;;4.57;;
58240;SDS011;45058;55.772;38.224;2023-02-28T07:33:36;7.27;;;4.63;;
58240;SDS011;45058;55.772;38.224;2023-02-28T07:36:03;9.30;;;4.87;;
58240;SDS011;45058;55.772;38.224;2023-02-28T07:38:33;8.30;;;4.53;;
58240;SDS011;45058;55.772;38.224;2023-02-28T07:41:01;9.23;;;4.70;;
58240;SDS011;45058;55.772;38.224;2023-02-28T07:43:30;8.20;;;4.13;;
58240;SDS011;45058;55.772;38.224;2023-02-28T07:46:01;8.70;;;4.63;;
58240;SDS011;45058;55.772;38.224;2023-02-28T07:48:28;9.13;;;4.77;;
58240;SDS011;45058;55.772;38.224;2023-02-28T07:50:55;8.67;;;4.50;;
58240;SDS011;45058;55.772;38.224;2023-02-28T07:53:21;7.40;;;4.63;;
58240;SDS011;45058;55.772;38.224;2023-02-28T07:55:47;8.27;;;4.90;;
58240;SDS011;45058;55.772;38.224;2023-02-28T07:58:14;9.93;;;4.90;;
58240;SDS011;45058;55.772;38.224;2023-02-28T08:00:40;8.13;;;4.97;;
58240;SDS011;45058;55.772;38.224;2023-02-28T08:03:08;12.57;;;5.03;;
58240;SDS011;45058;55.772;38.224;2023-02-28T08:05:40;10.00;;;5.23;;
58240;SDS011;45058;55.772;38.224;2023-02-28T08:08:07;7.40;;;5.03;;
58240;SDS011;45058;55.772;38.224;2023-02-28T08:10:33;13.50;;;4.70;;
58240;SDS011;45058;55.772;38.224;2023-02-28T08:13:00;8.50;;;4.77;;
58240;SDS011;45058;55.772;38.224;2023-02-28T08:15:26;10.70;;;4.70;;
58240;SDS011;45058;55.772;38.224;2023-02-28T08:17:52;8.93;;;4.00;;
58240;SDS011;45058;55.772;38.224;2023-02-28T08:20:18;9.73;;;4.70;;
58240;SDS011;45058;55.772;38.224;2023-02-28T08:22:44;7.20;;;4.50;;
58240;SDS011;45058;55.772;38.224;2023-02-28T08:25:10;10.80;;;4.60;;
58240;SDS011;45058;55.772;38.224;2023-02-28T08:27:38;7.27;;;4.63;;
58240;SDS011;45058;55.772;38.224;2023-02-28T08:30:04;10.77;;;4.87;;
58240;SDS011;45058;55.772;38.224;2023-02-28T08:32:32;7.50;;;4.13;;
58240;SDS011;45058;55.772;38.224;2023-02-28T08:34:59;7.00;;;4.77;;
58240;SDS011;45058;55.772;38.224;2023-02-28T08:37:25;8.23;;;4.57;;
58240;SDS011;45058;55.772;38.224;2023-02-28T08:39:51;13.43;;;5.13;;
58240;SDS011;45058;55.772;38.224;2023-02-28T08:42:17;7.17;;;4.40;;
58240;SDS011;45058;55.772;38.224;2023-02-28T08:44:43;8.73;;;5.07;;
58240;SDS011;45058;55.772;38.224;2023-02-28T08:47:09;7.80;;;4.87;;
58240;SDS011;45058;55.772;38.224;2023-02-28T08:49:36;8.27;;;5.07;;
58240;SDS011;45058;55.772;38.224;2023-02-28T08:52:03;9.23;;;5.07;;
58240;SDS011;45058;55.772;38.224;2023-02-28T08:54:29;10.07;;;5.13;;
58240;SDS011;45058;55.772;38.224;2023-02-28T08:56:57;11.47;;;5.37;;
58240;SDS011;45058;55.772;38.224;2023-02-28T08:59:23;6.80;;;4.67;;
58240;SDS011;45058;55.772;38.224;2023-02-28T09:01:49;10.33;;;4.80;;
58240;SDS011;45058;55.772;38.224;2023-02-28T09:04:15;15.90;;;5.83;;
58240;SDS011;45058;55.772;38.224;2023-02-28T09:06:41;11.40;;;5.60;;
58240;SDS011;45058;55.772;38.224;2023-02-28T09:09:07;11.90;;;5.33;;
58240;SDS011;45058;55.772;38.224;2023-02-28T09:11:35;11.93;;;6.07;;
58240;SDS011;45058;55.772;38.224;2023-02-28T09:14:01;8.07;;;4.67;;
58240;SDS011;45058;55.772;38.224;2023-02-28T09:16:29;9.63;;;5.37;;
58240;SDS011;45058;55.772;38.224;2023-02-28T09:18:59;8.80;;;5.40;;
58240;SDS011;45058;55.772;38.224;2023-02-28T09:21:27;11.27;;;5.03;;
58240;SDS011;45058;55.772;38.224;2023-02-28T09:23:53;8.27;;;5.13;;
58240;SDS011;45058;55.772;38.224;2023-02-28T09:26:21;8.00;;;4.90;;
58240;SDS011;45058;55.772;38.224;2023-02-28T09:28:48;10.53;;;4.93;;
58240;SDS011;45058;55.772;38.224;2023-02-28T09:31:17;9.57;;;4.57;;
58240;SDS011;45058;55.772;38.224;2023-02-28T09:33:52;7.87;;;4.60;;
58240;SDS011;45058;55.772;38.224;2023-02-28T09:36:20;8.33;;;4.83;;
58240;SDS011;45058;55.772;38.224;2023-02-28T09:38:46;8.00;;;5.20;;
58240;SDS011;45058;55.772;38.224;2023-02-28T09:41:14;6.93;;;4.63;;
58240;SDS011;45058;55.772;38.224;2023-02-28T09:43:43;9.37;;;5.20;;
58240;SDS011;45058;55.772;38.224;2023-02-28T09:46:18;9.83;;;5.37;;
58240;SDS011;45058;55.772;38.224;2023-02-28T09:48:56;8.23;;;4.30;;
58240;SDS011;45058;55.772;38.224;2023-02-28T09:53:51;7.63;;;4.03;;
58240;SDS011;45058;55.772;38.224;2023-02-28T09:56:20;8.13;;;3.73;;
58240;SDS011;45058;55.772;38.224;2023-02-28T09:59:00;30.20;;;3.67;;
58240;SDS011;45058;55.772;38.224;2023-02-28T10:04:10;7.13;;;4.03;;
58240;SDS011;45058;55.772;38.224;2023-02-28T10:06:49;6.03;;;3.50;;
58240;SDS011;45058;55.772;38.224;2023-02-28T10:09:25;11.10;;;4.50;;
58240;SDS011;45058;55.772;38.224;2023-02-28T10:11:57;5.73;;;3.67;;
58240;SDS011;45058;55.772;38.224;2023-02-28T10:14:26;5.23;;;2.87;;
58240;SDS011;45058;55.772;38.224;2023-02-28T10:17:03;10.00;;;3.97;;
58240;SDS011;45058;55.772;38.224;2023-02-28T10:19:44;7.53;;;4.03;;
58240;SDS011;45058;55.772;38.224;2023-02-28T10:25:20;7.07;;;4.23;;
58240;SDS011;45058;55.772;38.224;2023-02-28T10:27:49;6.77;;;4.00;;
58240;SDS011;45058;55.772;38.224;2023-02-28T10:30:18;6.47;;;3.73;;
58240;SDS011;45058;55.772;38.224;2023-02-28T10:32:48;8.97;;;4.37;;
58240;SDS011;45058;55.772;38.224;2023-02-28T10:35:22;8.98;;;4.88;;
58240;SDS011;45058;55.772;38.224;2023-02-28T10:37:51;10.97;;;3.87;;
58240;SDS011;45058;55.772;38.224;2023-02-28T10:42:57;8.13;;;3.93;;
58240;SDS011;45058;55.772;38.224;2023-02-28T10:45:25;8.20;;;4.10;;
58240;SDS011;45058;55.772;38.224;2023-02-28T10:47:58;7.73;;;3.57;;
58240;SDS011;45058;55.772;38.224;2023-02-28T10:52:54;7.40;;;4.00;;
58240;SDS011;45058;55.772;38.224;2023-02-28T10:55:24;7.60;;;4.00;;
58240;SDS011;45058;55.772;38.224;2023-02-28T10:57:51;8.57;;;4.00;;
58240;SDS011;45058;55.772;38.224;2023-02-28T11:00:23;7.47;;;3.57;;
58240;SDS011;45058;55.772;38.224;2023-02-28T11:02:51;6.90;;;3.93;;
58240;SDS011;45058;55.772;38.224;2023-02-28T11:05:26;7.53;;;4.20;;
58240;SDS011;45058;55.772;38.224;2023-02-28T11:07:56;6.97;;;4.00;;
58240;SDS011;45058;55.772;38.224;2023-02-28T11:10:26;6.37;;;3.70;;
58240;SDS011;45058;55.772;38.224;2023-02-28T11:12:55;9.87;;;4.83;;
58240;SDS011;45058;55.772;38.224;2023-02-28T11:18:18;8.40;;;4.63;;
58240;SDS011;45058;55.772;38.224;2023-02-28T11:20:51;7.40;;;4.23;;
58240;SDS011;45058;55.772;38.224;2023-02-28T11:23:18;7.97;;;3.67;;
58240;SDS011;45058;55.772;38.224;2023-02-28T11:25:47;6.93;;;3.87;;
58240;SDS011;45058;55.772;38.224;2023-02-28T11:28:50;7.13;;;3.93;;
58240;SDS011;45058;55.772;38.224;2023-02-28T11:33:51;10.87;;;4.40;;
58240;SDS011;45058;55.772;38.224;2023-02-28T11:36:24;8.87;;;4.70;;
58240;SDS011;45058;55.772;38.224;2023-02-28T11:38:52;8.23;;;4.20;;
58240;SDS011;45058;55.772;38.224;2023-02-28T11:52:25;7.38;;;4.60;;
58240;SDS011;45058;55.772;38.224;2023-02-28T11:57:49;9.43;;;5.03;;
58240;SDS011;45058;55.772;38.224;2023-02-28T12:03:15;11.40;;;5.70;;
58240;SDS011;45058;55.772;38.224;2023-02-28T12:06:12;12.53;;;5.60;;
58240;SDS011;45058;55.772;38.224;2023-02-28T12:11:14;12.53;;;5.80;;
58240;SDS011;45058;55.772;38.224;2023-02-28T12:14:03;10.33;;;4.57;;
58240;SDS011;45058;55.772;38.224;2023-02-28T12:16:47;10.23;;;4.53;;
58240;SDS011;45058;55.772;38.224;2023-02-28T12:27:24;6.65;;;3.95;;
58240;SDS011;45058;55.772;38.224;2023-02-28T12:29:57;9.10;;;4.80;;
58240;SDS011;45058;55.772;38.224;2023-02-28T12:37:37;8.73;;;5.63;;
58240;SDS011;45058;55.772;38.224;2023-02-28T12:40:13;9.40;;;5.17;;
58240;SDS011;45058;55.772;38.224;2023-02-28T12:42:46;9.67;;;5.63;;
58240;SDS011;45058;55.772;38.224;2023-02-28T12:45:18;11.27;;;5.13;;
58240;SDS011;45058;55.772;38.224;2023-02-28T12:47:48;7.90;;;4.97;;
58240;SDS011;45058;55.772;38.224;2023-02-28T12:50:17;8.93;;;5.30;;
58240;SDS011;45058;55.772;38.224;2023-02-28T13:03:42;8.03;;;4.30;;
58240;SDS011;45058;55.772;38.224;2023-02-28T13:09:52;7.33;;;4.40;;
58240;SDS011;45058;55.772;38.224;2023-02-28T13:12:20;7.27;;;4.63;;
58240;SDS011;45058;55.772;38.224;2023-02-28T13:14:48;8.77;;;4.10;;
58240;SDS011;45058;55.772;38.224;2023-02-28T13:17:18;7.83;;;3.93;;
58240;SDS011;45058;55.772;38.224;2023-02-28T13:19:55;7.53;;;4.57;;
58240;SDS011;45058;55.772;38.224;2023-02-28T13:24:54;8.10;;;4.27;;
58240;SDS011;45058;55.772;38.224;2023-02-28T13:27:22;8.30;;;4.33;;
58240;SDS011;45058;55.772;38.224;2023-02-28T13:29:53;8.47;;;3.67;;
58240;SDS011;45058;55.772;38.224;2023-02-28T13:39:56;5.87;;;3.50;;
58240;SDS011;45058;55.772;38.224;2023-02-28T13:45:20;7.40;;;4.03;;
58240;SDS011;45058;55.772;38.224;2023-02-28T13:48:02;8.27;;;4.23;;
58240;SDS011;45058;55.772;38.224;2023-02-28T13:50:36;6.67;;;4.30;;
58240;SDS011;45058;55.772;38.224;2023-02-28T13:53:13;7.50;;;3.80;;
58240;SDS011;45058;55.772;38.224;2023-02-28T13:59:28;7.53;;;4.17;;
58240;SDS011;45058;55.772;38.224;2023-02-28T14:02:00;8.67;;;5.23;;
58240;SDS011;45058;55.772;38.224;2023-02-28T14:04:45;6.77;;;4.20;;
58240;SDS011;45058;55.772;38.224;2023-02-28T14:07:20;8.03;;;4.07;;
58240;SDS011;45058;55.772;38.224;2023-02-28T14:09:56;8.23;;;4.20;;
58240;SDS011;45058;55.772;38.224;2023-02-28T14:15:31;8.53;;;4.53;;
58240;SDS011;45058;55.772;38.224;2023-02-28T14:18:25;9.83;;;4.20;;
58240;SDS011;45058;55.772;38.224;2023-02-28T14:20:55;7.27;;;4.53;;
58240;SDS011;45058;55.772;38.224;2023-02-28T14:29:44;8.83;;;5.17;;
58240;SDS011;45058;55.772;38.224;2023-02-28T14:32:59;7.63;;;4.55;;
58240;SDS011;45058;55.772;38.224;2023-02-28T14:35:40;9.20;;;4.70;;
58240;SDS011;45058;55.772;38.224;2023-02-28T14:38:28;9.83;;;5.00;;
58240;SDS011;45058;55.772;38.224;2023-02-28T14:40:58;6.80;;;4.83;;
58240;SDS011;45058;55.772;38.224;2023-02-28T14:43:28;7.13;;;4.73;;
58240;SDS011;45058;55.772;38.224;2023-02-28T14:45:59;9.17;;;4.80;;
58240;SDS011;45058;55.772;38.224;2023-02-28T14:48:26;12.80;;;5.73;;
58240;SDS011;45058;55.772;38.224;2023-02-28T14:50:57;6.93;;;4.50;;
58240;SDS011;45058;55.772;38.224;2023-02-28T14:53:28;7.87;;;4.27;;
58240;SDS011;45058;55.772;38.224;2023-02-28T14:55:56;8.70;;;5.37;;
58240;SDS011;45058;55.772;38.224;2023-02-28T14:58:26;7.77;;;4.83;;
58240;SDS011;45058;55.772;38.224;2023-02-28T15:00:55;7.13;;;4.80;;
58240;SDS011;45058;55.772;38.224;2023-02-28T15:03:33;8.43;;;4.60;;
58240;SDS011;45058;55.772;38.224;2023-02-28T15:06:01;7.37;;;4.70;;
58240;SDS011;45058;55.772;38.224;2023-02-28T15:08:36;7.97;;;4.90;;
58240;SDS011;45058;55.772;38.224;2023-02-28T15:11:36;9.13;;;5.37;;
58240;SDS011;45058;55.772;38.224;2023-02-28T15:13:55;7.73;;;4.90;;
58240;SDS011;45058;55.772;38.224;2023-02-28T15:16:22;9.27;;;5.27;;
58240;SDS011;45058;55.772;38.224;2023-02-28T15:18:56;8.67;;;4.93;;
58240;SDS011;45058;55.772;38.224;2023-02-28T15:21:29;7.50;;;4.43;;
58240;SDS011;45058;55.772;38.224;2023-02-28T15:24:14;7.60;;;4.97;;
58240;SDS011;45058;55.772;38.224;2023-02-28T15:27:07;7.17;;;4.53;;
58240;SDS011;45058;55.772;38.224;2023-02-28T15:29:48;7.18;;;5.07;;
58240;SDS011;45058;55.772;38.224;2023-02-28T15:32:21;10.70;;;5.33;;
58240;SDS011;45058;55.772;38.224;2023-02-28T15:34:54;6.67;;;4.57;;
58240;SDS011;45058;55.772;38.224;2023-02-28T15:40:21;7.63;;;4.40;;
58240;SDS011;45058;55.772;38.224;2023-02-28T15:43:13;6.20;;;4.03;;
58240;SDS011;45058;55.772;38.224;2023-02-28T15:45:45;7.13;;;4.60;;
58240;SDS011;45058;55.772;38.224;2023-02-28T15:48:18;6.90;;;4.33;;
58240;SDS011;45058;55.772;38.224;2023-02-28T15:50:51;10.27;;;4.90;;
58240;SDS011;45058;55.772;38.224;2023-02-28T15:53:25;7.00;;;5.00;;
58240;SDS011;45058;55.772;38.224;2023-02-28T15:55:56;6.47;;;4.57;;
58240;SDS011;45058;55.772;38.224;2023-02-28T15:58:26;6.70;;;4.63;;
58240;SDS011;45058;55.772;38.224;2023-02-28T16:01:06;9.67;;;4.33;;
58240;SDS011;45058;55.772;38.224;2023-02-28T16:03:43;6.87;;;4.43;;
58240;SDS011;45058;55.772;38.224;2023-02-28T16:08:56;6.40;;;4.50;;
58240;SDS011;45058;55.772;38.224;2023-02-28T16:11:22;7.90;;;4.90;;
58240;SDS011;45058;55.772;38.224;2023-02-28T16:13:49;6.50;;;4.30;;
58240;SDS011;45058;55.772;38.224;2023-02-28T16:16:21;6.10;;;3.93;;
58240;SDS011;45058;55.772;38.224;2023-02-28T16:18:49;10.17;;;4.33;;
58240;SDS011;45058;55.772;38.224;2023-02-28T16:21:16;6.70;;;4.47;;
58240;SDS011;45058;55.772;38.224;2023-02-28T16:23:43;8.03;;;4.23;;
58240;SDS011;45058;55.772;38.224;2023-02-28T16:26:16;6.07;;;4.10;;
58240;SDS011;45058;55.772;38.224;2023-02-28T16:31:11;7.05;;;3.90;;
58240;SDS011;45058;55.772;38.224;2023-02-28T16:33:42;5.37;;;3.90;;
58240;SDS011;45058;55.772;38.224;2023-02-28T16:36:12;6.43;;;4.03;;
58240;SDS011;45058;55.772;38.224;2023-02-28T16:38:40;7.37;;;4.10;;
58240;SDS011;45058;55.772;38.224;2023-02-28T16:41:06;7.70;;;3.97;;
58240;SDS011;45058;55.772;38.224;2023-02-28T16:43:32;6.37;;;4.30;;
58240;SDS011;45058;55.772;38.224;2023-02-28T16:45:59;7.77;;;4.50;;
58240;SDS011;45058;55.772;38.224;2023-02-28T16:48:26;6.00;;;3.50;;
58240;SDS011;45058;55.772;38.224;2023-02-28T16:50:53;6.27;;;4.27;;
58240;SDS011;45058;55.772;38.224;2023-02-28T16:53:19;6.43;;;3.90;;
58240;SDS011;45058;55.772;38.224;2023-02-28T16:55:45;7.77;;;3.87;;
58240;SDS011;45058;55.772;38.224;2023-02-28T16:58:13;6.33;;;3.80;;
58240;SDS011;45058;55.772;38.224;2023-02-28T17:00:40;6.60;;;3.97;;
58240;SDS011;45058;55.772;38.224;2023-02-28T17:03:22;7.00;;;3.77;;
58240;SDS011;45058;55.772;38.224;2023-02-28T17:05:51;7.00;;;3.77;;